Terminal Aerodrome Forecast
Issued by NWS

Home | Current Version | Previous Version | Text Only | Print | Product List | Glossary On
Versions: 1 2 3 4 5 6 7 8 9 10 11 12 13 14 15 16 17 18 19 20 21 22 23 24
000
FTUS46 KMFR 281436 AAB
TAFLMT
TAF AMD
KLMT 281436Z 2815/0112 34005KT P6SM BKN025 OVC035
     FM281700 35008KT P6SM BKN035 BKN060
     FM281900 35018G28KT P6SM SCT040 BKN060
     FM010200 02012G20KT P6SM SCT060
     FM010600 36007KT P6SM SKC=

USA.gov is the U.S. government's official web portal to all federal, state and local government web resources and services.